createdAt,value
2019-02-28T00:02:25.127Z,16.77
2019-02-28T00:04:53.520Z,13.83
2019-02-28T00:07:21.915Z,15.23
2019-02-28T00:09:50.404Z,12.73
2019-02-28T00:12:18.797Z,16.90
2019-02-28T00:14:47.201Z,15.57
2019-02-28T00:17:15.595Z,13.03
2019-02-28T00:19:43.992Z,12.70
2019-02-28T00:22:14.669Z,11.87
2019-02-28T00:24:42.508Z,11.00
2019-02-28T00:27:10.905Z,13.80
2019-02-28T00:29:39.381Z,14.30
2019-02-28T00:32:07.768Z,11.30
2019-02-28T00:34:36.286Z,11.33
2019-02-28T00:37:06.296Z,14.03
2019-02-28T00:39:35.491Z,12.40
2019-02-28T00:42:03.994Z,11.97
2019-02-28T00:44:32.418Z,11.63
2019-02-28T00:47:00.809Z,12.37
2019-02-28T00:49:29.346Z,14.03
2019-02-28T00:51:57.739Z,10.77
2019-02-28T00:54:26.132Z,11.77
2019-02-28T00:56:54.516Z,11.90
2019-02-28T00:59:22.936Z,11.77
2019-02-28T01:01:51.374Z,12.37
2019-02-28T01:04:19.756Z,9.97
2019-02-28T01:06:48.154Z,11.83
2019-02-28T01:09:16.612Z,10.97
2019-02-28T01:11:45.648Z,11.00
2019-02-28T01:14:14.074Z,9.57
2019-02-28T01:16:42.568Z,10.30
2019-02-28T01:19:10.962Z,10.50
2019-02-28T01:21:39.349Z,10.10
2019-02-28T01:24:07.730Z,9.73
2019-02-28T01:26:36.192Z,11.73
2019-02-28T01:29:04.603Z,10.10
2019-02-28T01:31:33.004Z,9.87
2019-02-28T01:34:01.482Z,9.87
2019-02-28T01:36:29.881Z,11.00
2019-02-28T01:38:58.861Z,9.27
2019-02-28T01:41:27.344Z,9.73
2019-02-28T01:43:55.733Z,11.70
2019-02-28T01:46:24.142Z,8.97
2019-02-28T01:48:54.571Z,9.33
2019-02-28T01:51:22.665Z,10.93
2019-02-28T01:53:53.639Z,9.23
2019-02-28T01:56:21.191Z,8.83
2019-02-28T01:58:50.352Z,9.70
2019-02-28T02:01:19.583Z,8.63
2019-02-28T02:03:47.978Z,8.73
2019-02-28T02:06:16.385Z,9.67
2019-02-28T02:08:44.773Z,10.23
2019-02-28T02:11:13.188Z,10.00
2019-02-28T02:13:41.583Z,9.00
2019-02-28T02:16:09.998Z,9.47
2019-02-28T02:18:40.230Z,8.63
2019-02-28T02:21:08.535Z,10.00
2019-02-28T02:23:36.939Z,8.77
2019-02-28T02:26:05.364Z,9.10
2019-02-28T02:28:33.742Z,8.33
2019-02-28T02:31:02.203Z,9.70
2019-02-28T02:33:30.554Z,8.37
2019-02-28T02:35:58.973Z,8.90
2019-02-28T02:38:27.413Z,8.13
2019-02-28T02:41:00.552Z,8.30
2019-02-28T02:43:25.947Z,7.40
2019-02-28T02:45:54.373Z,8.90
2019-02-28T02:48:22.757Z,8.30
2019-02-28T02:50:51.190Z,8.73
2019-02-28T02:53:19.579Z,7.67
2019-02-28T02:55:47.989Z,7.57
2019-02-28T02:58:16.379Z,6.97
2019-02-28T03:00:49.328Z,8.93
2019-02-28T03:03:15.029Z,8.10
2019-02-28T03:05:43.513Z,7.93
2019-02-28T03:08:11.890Z,7.70
2019-02-28T03:10:40.304Z,6.90
2019-02-28T03:13:08.694Z,7.77
2019-02-28T03:15:37.127Z,7.90
2019-02-28T03:18:05.522Z,7.77
2019-02-28T03:20:33.917Z,7.93
2019-02-28T03:23:03.357Z,7.53
2019-02-28T03:25:31.881Z,7.47
2019-02-28T03:28:00.274Z,7.53
2019-02-28T03:30:32.709Z,6.77
2019-02-28T03:32:58.797Z,10.10
2019-02-28T03:35:39.959Z,8.17
2019-02-28T03:37:57.288Z,8.80
2019-02-28T03:40:25.673Z,9.07
2019-02-28T03:42:54.076Z,8.77
2019-02-28T03:45:22.467Z,8.00
2019-02-28T03:47:50.871Z,7.37
2019-02-28T03:50:21.980Z,7.63
2019-02-28T03:52:49.455Z,8.23
2019-02-28T03:55:17.839Z,8.30
2019-02-28T03:57:46.247Z,8.23
2019-02-28T04:00:17.617Z,8.47
2019-02-28T04:02:46.010Z,8.70
2019-02-28T04:05:14.448Z,6.50
2019-02-28T04:07:42.804Z,7.57
2019-02-28T04:10:16.794Z,7.30
2019-02-28T04:12:45.584Z,8.37
2019-02-28T04:15:19.680Z,6.80
2019-02-28T04:17:48.074Z,6.47
2019-02-28T04:20:16.457Z,6.47
2019-02-28T04:22:45.313Z,8.10
2019-02-28T04:25:13.708Z,7.20
2019-02-28T04:27:42.132Z,6.47
2019-02-28T04:30:15.596Z,12.27
2019-02-28T04:32:43.983Z,6.27
2019-02-28T04:35:12.369Z,6.60
2019-02-28T04:37:44.626Z,7.30
2019-02-28T04:40:12.218Z,6.00
2019-02-28T04:42:40.608Z,8.13
2019-02-28T04:45:11.349Z,6.97
2019-02-28T04:47:40.440Z,6.33
2019-02-28T04:50:11.538Z,7.80
2019-02-28T04:52:39.900Z,6.30
2019-02-28T04:55:08.928Z,6.00
2019-02-28T04:57:37.312Z,7.63
2019-02-28T05:00:09.110Z,6.97
2019-02-28T05:02:37.649Z,7.07
2019-02-28T05:05:06.102Z,6.10
2019-02-28T05:07:34.522Z,6.00
2019-02-28T05:10:03.102Z,6.73
2019-02-28T05:12:31.568Z,7.77
2019-02-28T05:15:02.432Z,6.33
2019-02-28T05:17:30.116Z,7.00
2019-02-28T05:19:58.497Z,5.80
2019-02-28T05:22:27.583Z,5.93
2019-02-28T05:24:56.883Z,7.03
2019-02-28T05:27:25.323Z,5.77
2019-02-28T05:29:53.703Z,6.93
2019-02-28T05:32:22.129Z,7.10
2019-02-28T05:34:51.068Z,6.83
2019-02-28T05:37:20.339Z,5.77
2019-02-28T05:39:48.728Z,7.63
2019-02-28T05:42:17.134Z,12.80
2019-02-28T05:44:45.563Z,6.20
2019-02-28T05:47:13.989Z,7.37
2019-02-28T05:49:42.378Z,8.30
2019-02-28T05:52:10.877Z,7.33
2019-02-28T05:54:39.267Z,8.50
2019-02-28T05:57:08.050Z,7.50
2019-02-28T05:59:37.258Z,9.70
2019-02-28T06:02:05.690Z,7.27
2019-02-28T06:04:36.839Z,8.30
2019-02-28T06:07:04.214Z,7.37
2019-02-28T06:09:32.663Z,8.40
2019-02-28T06:12:01.184Z,10.30
2019-02-28T06:14:29.571Z,11.57
2019-02-28T06:16:57.999Z,8.50
2019-02-28T06:19:26.385Z,9.87
2019-02-28T06:21:56.327Z,7.77
2019-02-28T06:24:24.954Z,9.33
2019-02-28T06:26:53.349Z,13.50
2019-02-28T06:29:21.738Z,13.40
2019-02-28T06:31:50.133Z,11.10
2019-02-28T06:34:18.528Z,11.63
2019-02-28T06:36:46.917Z,14.63
2019-02-28T06:39:17.441Z,13.40
2019-02-28T06:41:45.486Z,12.17
2019-02-28T06:44:13.876Z,13.83
2019-02-28T06:46:42.265Z,15.43
2019-02-28T06:49:10.662Z,15.63
2019-02-28T06:51:39.055Z,10.40
2019-02-28T06:54:08.575Z,12.00
2019-02-28T06:56:37.269Z,15.07
2019-02-28T06:59:05.750Z,13.97
2019-02-28T07:01:34.143Z,16.03
2019-02-28T07:04:02.546Z,14.73
2019-02-28T07:06:35.696Z,12.40
2019-02-28T07:09:02.526Z,14.77
2019-02-28T07:11:31.649Z,13.43
2019-02-28T07:14:00.040Z,12.73
2019-02-28T07:16:30.662Z,10.53
2019-02-28T07:18:58.562Z,13.07
2019-02-28T07:21:26.948Z,13.07
2019-02-28T07:23:55.349Z,12.10
2019-02-28T07:26:23.738Z,11.10
2019-02-28T07:28:52.137Z,11.07
2019-02-28T07:31:21.620Z,11.80
2019-02-28T07:33:51.398Z,10.40
2019-02-28T07:36:19.969Z,10.43
2019-02-28T07:38:48.383Z,13.00
2019-02-28T07:41:16.779Z,11.57
2019-02-28T07:43:46.266Z,11.60
2019-02-28T07:46:15.353Z,10.67
2019-02-28T07:48:43.743Z,10.13
2019-02-28T07:51:12.133Z,9.87
2019-02-28T07:53:41.973Z,11.20
2019-02-28T07:56:10.536Z,12.03
2019-02-28T07:58:38.955Z,11.77
2019-02-28T08:01:07.350Z,9.37
2019-02-28T08:03:35.779Z,10.87
2019-02-28T08:06:05.618Z,11.30
2019-02-28T08:08:34.806Z,12.03
2019-02-28T08:11:03.192Z,9.43
2019-02-28T08:13:34.582Z,10.30
2019-02-28T08:16:01.774Z,8.27
2019-02-28T08:18:31.655Z,10.13
2019-02-28T08:21:00.170Z,8.20
2019-02-28T08:23:29.686Z,10.13
2019-02-28T08:25:58.708Z,9.50
2019-02-28T08:28:27.130Z,9.20
2019-02-28T08:30:56.054Z,7.93
2019-02-28T08:33:24.550Z,7.30
2019-02-28T08:35:52.937Z,7.43
2019-02-28T08:38:21.358Z,9.20
2019-02-28T08:40:51.445Z,6.53
2019-02-28T08:43:26.882Z,6.23
2019-02-28T08:45:50.089Z,7.47
2019-02-28T08:48:18.512Z,7.47
2019-02-28T08:50:46.902Z,6.27
2019-02-28T08:53:16.225Z,8.73
2019-02-28T08:55:44.721Z,7.83
2019-02-28T08:58:13.105Z,6.30
2019-02-28T09:00:41.572Z,7.47
2019-02-28T09:03:09.999Z,7.97
2019-02-28T09:05:38.393Z,6.00
2019-02-28T09:08:06.781Z,8.80
2019-02-28T09:10:35.205Z,6.87
2019-02-28T09:13:07.737Z,7.37
2019-02-28T09:15:33.784Z,6.10
2019-02-28T09:18:02.177Z,6.07
2019-02-28T09:20:30.585Z,6.43
2019-02-28T09:23:02.173Z,7.80
2019-02-28T09:25:29.081Z,7.03
2019-02-28T09:27:57.524Z,5.73
2019-02-28T09:30:32.287Z,6.37
2019-02-28T09:33:00.751Z,7.87
2019-02-28T09:35:29.160Z,6.63
2019-02-28T09:37:57.591Z,7.57
2019-02-28T09:40:29.532Z,6.07
2019-02-28T09:42:56.168Z,6.40
2019-02-28T09:45:29.389Z,6.20
2019-02-28T09:48:00.847Z,5.17
2019-02-28T09:50:27.890Z,6.13
2019-02-28T09:52:56.277Z,5.43
2019-02-28T09:55:24.712Z,5.73
2019-02-28T09:57:54.709Z,5.43
2019-02-28T10:00:24.641Z,4.97
2019-02-28T10:02:53.196Z,5.40
2019-02-28T10:05:21.651Z,5.40
2019-02-28T10:07:50.038Z,5.63
2019-02-28T10:10:35.368Z,5.10
2019-02-28T10:13:03.766Z,4.57
2019-02-28T10:15:32.185Z,5.00
2019-02-28T10:18:04.059Z,5.77
2019-02-28T10:20:39.226Z,6.90
2019-02-28T10:23:07.632Z,5.00
2019-02-28T10:25:41.020Z,5.73
2019-02-28T10:28:06.151Z,4.57
2019-02-28T10:30:34.615Z,4.53
2019-02-28T10:33:03.001Z,4.83
2019-02-28T10:35:33.422Z,4.97
2019-02-28T10:38:01.591Z,4.90
2019-02-28T10:40:31.022Z,5.10
2019-02-28T10:42:59.403Z,4.30
2019-02-28T10:45:28.203Z,5.93
2019-02-28T10:47:56.584Z,4.37
2019-02-28T10:50:33.286Z,4.37
2019-02-28T10:53:04.025Z,4.53
2019-02-28T10:55:31.037Z,5.40
2019-02-28T10:57:59.680Z,5.73
2019-02-28T11:00:33.809Z,5.30
2019-02-28T11:03:02.483Z,4.07
2019-02-28T11:05:35.256Z,4.57
2019-02-28T11:08:04.380Z,4.20
2019-02-28T11:10:39.013Z,4.57
2019-02-28T11:13:15.440Z,5.20
2019-02-28T11:15:47.951Z,4.57
2019-02-28T11:18:14.136Z,4.60
2019-02-28T11:20:42.639Z,5.30
2019-02-28T11:23:14.312Z,3.60
2019-02-28T11:25:41.672Z,4.23
2019-02-28T11:28:10.059Z,4.60
2019-02-28T11:30:44.015Z,4.47
2019-02-28T11:33:08.754Z,3.33
2019-02-28T11:35:37.144Z,3.40
2019-02-28T11:38:05.575Z,3.63
2019-02-28T11:40:34.268Z,4.50
2019-02-28T11:43:03.855Z,3.87
2019-02-28T11:45:36.692Z,4.40
2019-02-28T11:48:18.807Z,4.00
2019-02-28T11:50:45.108Z,4.13
2019-02-28T11:53:13.666Z,3.83
2019-02-28T11:55:42.227Z,6.73
2019-02-28T11:58:16.322Z,4.20
2019-02-28T12:00:40.875Z,4.43
2019-02-28T12:03:09.329Z,4.37
2019-02-28T12:05:37.712Z,4.67
2019-02-28T12:08:09.032Z,4.60
2019-02-28T12:10:36.295Z,4.17
2019-02-28T12:13:04.686Z,4.60
2019-02-28T12:15:41.057Z,5.20
2019-02-28T12:18:09.435Z,4.77
2019-02-28T12:20:37.866Z,5.13
2019-02-28T12:23:06.247Z,5.07
2019-02-28T12:25:34.663Z,5.20
2019-02-28T12:28:06.308Z,5.83
2019-02-28T12:30:34.115Z,5.23
2019-02-28T12:33:02.491Z,4.63
2019-02-28T12:35:37.404Z,4.43
2019-02-28T12:38:01.112Z,5.50
2019-02-28T12:40:34.655Z,4.77
2019-02-28T12:43:08.733Z,4.50
2019-02-28T12:45:38.862Z,5.10
2019-02-28T12:48:07.247Z,5.57
2019-02-28T12:50:35.677Z,4.83
2019-02-28T12:53:04.331Z,5.57
2019-02-28T12:55:35.412Z,4.97
2019-02-28T12:58:02.944Z,5.03
2019-02-28T13:00:36.854Z,5.07
2019-02-28T13:03:05.403Z,5.17
2019-02-28T13:05:33.863Z,5.73
2019-02-28T13:08:05.748Z,8.33
2019-02-28T13:10:32.444Z,6.67
2019-02-28T13:13:06.486Z,6.57
2019-02-28T13:15:32.282Z,7.03
2019-02-28T13:18:07.244Z,6.17
2019-02-28T13:20:36.470Z,5.90
2019-02-28T13:23:05.341Z,7.00
2019-02-28T13:25:33.818Z,5.93
2019-02-28T13:28:02.224Z,6.40
2019-02-28T13:30:30.610Z,6.00
2019-02-28T13:32:59.373Z,5.37
2019-02-28T13:35:31.490Z,5.03
2019-02-28T13:37:59.878Z,5.83
2019-02-28T13:40:28.271Z,5.80
2019-02-28T13:42:56.685Z,8.30
2019-02-28T13:45:25.734Z,6.10
2019-02-28T13:47:54.158Z,6.93
2019-02-28T13:50:32.491Z,6.20
2019-02-28T13:53:02.480Z,8.57
2019-02-28T13:55:31.533Z,5.97
2019-02-28T13:58:00.012Z,8.03
2019-02-28T14:00:34.042Z,5.67
2019-02-28T14:03:09.159Z,6.50
2019-02-28T14:05:39.182Z,7.27
2019-02-28T14:08:09.615Z,6.40
2019-02-28T14:10:35.248Z,8.77
2019-02-28T14:13:05.649Z,8.27
2019-02-28T14:15:42.529Z,7.77
2019-02-28T14:18:11.638Z,6.23
2019-02-28T14:20:40.158Z,8.03
2019-02-28T14:23:08.558Z,6.97
2019-02-28T14:25:39.659Z,7.87
2019-02-28T14:28:07.078Z,6.00
2019-02-28T14:30:35.485Z,6.43
2019-02-28T14:33:03.852Z,6.13
2019-02-28T14:35:35.168Z,7.53
2019-02-28T14:38:02.424Z,6.73
2019-02-28T14:40:30.822Z,6.03
2019-02-28T14:42:59.214Z,7.33
2019-02-28T14:45:29.637Z,8.13
2019-02-28T14:48:00.840Z,5.97
2019-02-28T14:50:29.693Z,6.63
2019-02-28T14:52:58.514Z,5.70
2019-02-28T14:55:29.271Z,6.90
2019-02-28T14:57:57.305Z,6.53
2019-02-28T15:00:35.275Z,6.63
2019-02-28T15:03:03.954Z,5.07
2019-02-28T15:05:39.235Z,5.23
2019-02-28T15:08:07.656Z,4.87
2019-02-28T15:10:36.293Z,4.50
2019-02-28T15:13:05.125Z,6.23
2019-02-28T15:15:35.944Z,5.27
2019-02-28T15:18:03.985Z,5.07
2019-02-28T15:20:33.244Z,6.37
2019-02-28T15:23:01.899Z,4.23
2019-02-28T15:25:31.029Z,5.90
2019-02-28T15:27:59.450Z,4.93
2019-02-28T15:30:37.091Z,4.50
2019-02-28T15:33:05.476Z,4.40
2019-02-28T15:35:33.871Z,4.87
2019-02-28T15:38:05.560Z,7.70
2019-02-28T15:40:35.648Z,5.30
2019-02-28T15:43:04.030Z,8.37
2019-02-28T15:45:36.141Z,5.87
2019-02-28T15:48:02.551Z,5.57
2019-02-28T15:50:30.938Z,6.40
2019-02-28T15:52:59.326Z,5.97
2019-02-28T15:55:27.792Z,8.00
2019-02-28T15:57:56.176Z,6.63
2019-02-28T16:00:29.432Z,7.13
2019-02-28T16:02:57.993Z,7.53
2019-02-28T16:05:26.397Z,6.83
2019-02-28T16:07:55.134Z,8.47
2019-02-28T16:10:28.622Z,6.97
2019-02-28T16:12:56.235Z,9.67
2019-02-28T16:15:24.651Z,7.17
2019-02-28T16:17:53.043Z,6.30
2019-02-28T16:20:21.434Z,6.37
2019-02-28T16:22:53.105Z,7.77
2019-02-28T16:25:29.069Z,10.40
2019-02-28T16:27:57.457Z,6.67
2019-02-28T16:30:28.678Z,8.43
2019-02-28T16:32:55.972Z,9.20
2019-02-28T16:35:24.478Z,11.97
2019-02-28T16:37:52.951Z,7.40
2019-02-28T16:40:27.154Z,10.03
2019-02-28T16:42:55.686Z,7.73
2019-02-28T16:45:31.674Z,9.37
2019-02-28T16:48:03.022Z,8.37
2019-02-28T16:50:31.886Z,9.00
2019-02-28T16:53:00.377Z,12.67
2019-02-28T16:55:31.079Z,12.23
2019-02-28T16:57:58.921Z,14.60
2019-02-28T17:00:27.449Z,19.00
2019-02-28T17:02:55.869Z,23.37
2019-02-28T17:05:28.005Z,21.47
2019-02-28T17:07:54.597Z,28.47
2019-02-28T17:10:33.640Z,27.40
2019-02-28T17:13:19.994Z,39.13
2019-02-28T17:15:55.871Z,36.70
2019-02-28T17:18:24.669Z,38.17
2019-02-28T17:20:53.062Z,37.73
2019-02-28T17:23:22.123Z,37.30
2019-02-28T17:25:53.565Z,41.00
2019-02-28T17:28:38.522Z,41.03
2019-02-28T17:31:17.429Z,38.53
2019-02-28T17:33:47.666Z,39.80
2019-02-28T17:36:16.247Z,41.50
2019-02-28T17:38:44.675Z,42.00
2019-02-28T17:41:13.067Z,36.47
2019-02-28T17:43:41.464Z,42.00
2019-02-28T17:46:13.160Z,36.37
2019-02-28T17:49:01.143Z,37.23
2019-02-28T17:51:42.291Z,35.90
2019-02-28T17:54:36.854Z,36.47
2019-02-28T17:57:11.071Z,38.33
2019-02-28T18:00:06.530Z,38.43
2019-02-28T18:03:12.991Z,39.57
2019-02-28T18:05:52.994Z,34.47
2019-02-28T18:08:37.687Z,35.23
2019-02-28T18:11:23.961Z,31.77
2019-02-28T18:14:01.538Z,31.07
2019-02-28T18:17:08.526Z,34.00
2019-02-28T18:19:43.159Z,34.03
2019-02-28T18:22:31.057Z,29.20
2019-02-28T18:25:37.861Z,29.17
2019-02-28T18:28:15.268Z,28.67
2019-02-28T18:31:07.770Z,29.37
2019-02-28T18:33:36.541Z,26.97
2019-02-28T18:36:08.287Z,26.37
2019-02-28T18:38:36.578Z,23.83
2019-02-28T18:41:06.443Z,27.20
2019-02-28T18:43:35.034Z,25.83
2019-02-28T18:46:03.476Z,30.37
2019-02-28T18:48:31.871Z,23.27
2019-02-28T18:51:00.377Z,28.77
2019-02-28T18:53:28.773Z,28.73
2019-02-28T18:55:57.168Z,25.07
2019-02-28T18:58:25.567Z,25.40
2019-02-28T19:00:53.959Z,27.20
2019-02-28T19:03:22.352Z,24.93
2019-02-28T19:05:50.769Z,23.13
2019-02-28T19:08:19.221Z,23.17
2019-02-28T19:10:47.620Z,28.00
2019-02-28T19:13:16.034Z,21.97
2019-02-28T19:15:45.258Z,22.07
2019-02-28T19:18:13.764Z,23.07
2019-02-28T19:20:42.167Z,21.97
2019-02-28T19:23:10.751Z,19.77
2019-02-28T19:25:39.148Z,21.77
2019-02-28T19:28:07.543Z,21.30
2019-02-28T19:30:35.943Z,19.67
2019-02-28T19:33:04.405Z,18.37
2019-02-28T19:35:32.971Z,19.40
2019-02-28T19:38:01.370Z,21.67
2019-02-28T19:40:29.845Z,18.30
2019-02-28T19:42:58.247Z,19.00
2019-02-28T19:45:30.101Z,21.70
2019-02-28T19:47:58.488Z,20.20
2019-02-28T19:50:26.910Z,17.77
2019-02-28T19:52:55.323Z,21.13
2019-02-28T19:55:23.811Z,18.07
2019-02-28T19:57:52.206Z,18.90
2019-02-28T20:00:20.965Z,17.93
2019-02-28T20:02:49.365Z,21.60
2019-02-28T20:05:17.770Z,18.03
2019-02-28T20:07:46.167Z,19.10
2019-02-28T20:10:19.142Z,17.67
2019-02-28T20:12:47.551Z,33.77
2019-02-28T20:15:18.348Z,19.90
2019-02-28T20:17:46.761Z,20.73
2019-02-28T20:20:29.529Z,21.67
2019-02-28T20:22:57.953Z,25.17
2019-02-28T20:25:26.334Z,23.60
2019-02-28T20:27:54.744Z,27.47
2019-02-28T20:30:24.791Z,17.57
2019-02-28T20:32:53.269Z,19.10
2019-02-28T20:35:26.642Z,16.47
2019-02-28T20:37:51.947Z,21.00
2019-02-28T20:40:37.099Z,17.67
2019-02-28T20:43:05.632Z,14.57
2019-02-28T20:45:34.035Z,16.70
2019-02-28T20:48:04.187Z,14.70
2019-02-28T20:50:38.717Z,13.97
2019-02-28T20:53:07.140Z,11.37
2019-02-28T20:55:35.536Z,12.27
2019-02-28T20:58:04.096Z,12.10
2019-02-28T21:00:33.568Z,12.63
2019-02-28T21:03:01.984Z,9.23
2019-02-28T21:05:30.370Z,11.23
2019-02-28T21:07:58.816Z,13.43
2019-02-28T21:10:27.260Z,11.30
2019-02-28T21:12:55.694Z,13.70
2019-02-28T21:15:24.897Z,9.53
2019-02-28T21:17:53.479Z,8.70
2019-02-28T21:20:21.885Z,9.47
2019-02-28T21:22:50.301Z,9.67
2019-02-28T21:25:19.167Z,8.60
2019-02-28T21:27:47.600Z,8.97
2019-02-28T21:30:21.541Z,8.47
2019-02-28T21:32:49.987Z,7.73
2019-02-28T21:35:18.375Z,10.13
2019-02-28T21:37:47.902Z,7.13
2019-02-28T21:40:20.082Z,7.63
2019-02-28T21:42:48.488Z,9.53
2019-02-28T21:45:21.907Z,7.53
2019-02-28T21:47:50.279Z,8.40
2019-02-28T21:50:18.673Z,7.83
2019-02-28T21:52:47.071Z,8.00
2019-02-28T21:55:16.487Z,8.67
2019-02-28T21:57:44.875Z,9.60
2019-02-28T22:00:19.035Z,6.67
2019-02-28T22:02:47.456Z,6.53
2019-02-28T22:05:15.874Z,7.00
2019-02-28T22:07:44.620Z,6.47
2019-02-28T22:10:16.836Z,6.53
2019-02-28T22:12:45.338Z,9.47
2019-02-28T22:15:24.611Z,7.60
2019-02-28T22:17:53.014Z,7.70
2019-02-28T22:20:21.428Z,5.73
2019-02-28T22:22:49.855Z,6.47
2019-02-28T22:25:20.877Z,6.07
2019-02-28T22:27:49.334Z,5.23
2019-02-28T22:30:44.750Z,5.63
2019-02-28T22:33:23.734Z,6.17
2019-02-28T22:35:59.776Z,5.67
2019-02-28T22:38:28.204Z,6.50
2019-02-28T22:40:56.597Z,6.07
2019-02-28T22:43:25.084Z,5.80
2019-02-28T22:45:53.473Z,5.80
2019-02-28T22:48:22.044Z,5.07
2019-02-28T22:50:50.436Z,4.63
2019-02-28T22:53:18.844Z,4.60
2019-02-28T22:55:47.228Z,7.13
2019-02-28T22:58:15.652Z,4.87
2019-02-28T23:01:04.382Z,5.33
2019-02-28T23:03:34.482Z,4.77
2019-02-28T23:06:02.867Z,5.43
2019-02-28T23:08:31.332Z,4.37
2019-02-28T23:10:59.716Z,4.63
2019-02-28T23:13:28.138Z,5.03
2019-02-28T23:15:56.518Z,5.20
2019-02-28T23:18:24.953Z,4.57
2019-02-28T23:20:53.340Z,4.87
2019-02-28T23:23:21.876Z,5.33
2019-02-28T23:25:50.262Z,4.57
2019-02-28T23:28:27.317Z,4.53
2019-02-28T23:31:20.083Z,5.00
2019-02-28T23:33:48.488Z,6.13
2019-02-28T23:36:16.876Z,4.90
2019-02-28T23:38:45.292Z,4.27
2019-02-28T23:41:13.684Z,5.93
2019-02-28T23:43:42.074Z,5.97
2019-02-28T23:46:10.468Z,5.73
2019-02-28T23:48:38.885Z,4.03
2019-02-28T23:51:07.310Z,4.00
2019-02-28T23:53:35.661Z,6.63
2019-02-28T23:56:04.047Z,5.00
2019-02-28T23:58:32.441Z,7.67
